sensor_id;sensor_type;location;lat;lon;timestamp;temperature;humidity
45044;DHT22;30784;48.490;9.688;2022-11-20T00:00:45;7.90;62.10
45044;DHT22;30784;48.490;9.688;2022-11-20T00:03:12;7.80;62.10
45044;DHT22;30784;48.490;9.688;2022-11-20T00:05:37;7.90;62.20
45044;DHT22;30784;48.490;9.688;2022-11-20T00:08:03;7.80;62.20
45044;DHT22;30784;48.490;9.688;2022-11-20T00:10:29;7.80;62.20
45044;DHT22;30784;48.490;9.688;2022-11-20T00:12:55;7.80;62.20
45044;DHT22;30784;48.490;9.688;2022-11-20T00:15:20;7.80;62.10
45044;DHT22;30784;48.490;9.688;2022-11-20T00:17:46;7.80;62.10
45044;DHT22;30784;48.490;9.688;2022-11-20T00:20:12;7.70;62.10
45044;DHT22;30784;48.490;9.688;2022-11-20T00:22:38;7.70;62.10
45044;DHT22;30784;48.490;9.688;2022-11-20T00:25:04;7.60;62.10
45044;DHT22;30784;48.490;9.688;2022-11-20T00:27:29;7.60;62.20
45044;DHT22;30784;48.490;9.688;2022-11-20T00:29:55;7.60;62.10
45044;DHT22;30784;48.490;9.688;2022-11-20T00:32:21;7.60;62.10
45044;DHT22;30784;48.490;9.688;2022-11-20T00:34:46;7.50;62.10
45044;DHT22;30784;48.490;9.688;2022-11-20T00:37:12;7.50;62.00
45044;DHT22;30784;48.490;9.688;2022-11-20T00:39:37;7.50;62.00
45044;DHT22;30784;48.490;9.688;2022-11-20T00:42:03;7.50;62.10
45044;DHT22;30784;48.490;9.688;2022-11-20T00:44:29;7.50;62.10
45044;DHT22;30784;48.490;9.688;2022-11-20T00:46:54;7.40;62.10
45044;DHT22;30784;48.490;9.688;2022-11-20T00:49:20;7.40;62.10
45044;DHT22;30784;48.490;9.688;2022-11-20T00:51:45;7.40;62.10
45044;DHT22;30784;48.490;9.688;2022-11-20T00:54:11;7.40;62.20
45044;DHT22;30784;48.490;9.688;2022-11-20T00:56:36;7.40;62.20
45044;DHT22;30784;48.490;9.688;2022-11-20T00:59:02;7.30;62.20
45044;DHT22;30784;48.490;9.688;2022-11-20T01:01:28;7.30;62.10
45044;DHT22;30784;48.490;9.688;2022-11-20T01:03:58;7.30;62.10
45044;DHT22;30784;48.490;9.688;2022-11-20T01:06:26;7.30;62.20
45044;DHT22;30784;48.490;9.688;2022-11-20T01:08:55;7.20;62.10
45044;DHT22;30784;48.490;9.688;2022-11-20T01:11:24;7.20;62.20
45044;DHT22;30784;48.490;9.688;2022-11-20T01:13:51;7.20;62.20
45044;DHT22;30784;48.490;9.688;2022-11-20T01:16:18;7.20;62.20
45044;DHT22;30784;48.490;9.688;2022-11-20T01:18:46;7.20;62.20
45044;DHT22;30784;48.490;9.688;2022-11-20T01:21:18;7.20;62.20
45044;DHT22;30784;48.490;9.688;2022-11-20T01:23:44;7.20;62.20
45044;DHT22;30784;48.490;9.688;2022-11-20T01:26:12;7.20;62.10
45044;DHT22;30784;48.490;9.688;2022-11-20T01:28:39;7.20;62.10
45044;DHT22;30784;48.490;9.688;2022-11-20T01:33:45;7.20;62.10
45044;DHT22;30784;48.490;9.688;2022-11-20T01:36:12;7.20;62.10
45044;DHT22;30784;48.490;9.688;2022-11-20T01:38:38;7.20;62.10
45044;DHT22;30784;48.490;9.688;2022-11-20T01:41:05;7.20;62.00
45044;DHT22;30784;48.490;9.688;2022-11-20T01:43:31;7.20;62.00
45044;DHT22;30784;48.490;9.688;2022-11-20T01:48:32;7.20;62.00
45044;DHT22;30784;48.490;9.688;2022-11-20T01:51:00;7.10;61.90
45044;DHT22;30784;48.490;9.688;2022-11-20T01:53:32;7.10;61.90
45044;DHT22;30784;48.490;9.688;2022-11-20T01:56:06;7.10;61.90
45044;DHT22;30784;48.490;9.688;2022-11-20T01:58:36;7.10;62.00
45044;DHT22;30784;48.490;9.688;2022-11-20T02:01:04;7.10;62.00
45044;DHT22;30784;48.490;9.688;2022-11-20T02:03:30;7.00;62.00
45044;DHT22;30784;48.490;9.688;2022-11-20T02:06:22;7.00;62.00
45044;DHT22;30784;48.490;9.688;2022-11-20T02:08:51;7.00;62.00
45044;DHT22;30784;48.490;9.688;2022-11-20T02:11:20;7.00;62.00
45044;DHT22;30784;48.490;9.688;2022-11-20T02:13:46;7.00;62.10
45044;DHT22;30784;48.490;9.688;2022-11-20T02:16:24;7.00;62.10
45044;DHT22;30784;48.490;9.688;2022-11-20T02:18:51;6.90;62.00
45044;DHT22;30784;48.490;9.688;2022-11-20T02:21:19;6.90;62.00
45044;DHT22;30784;48.490;9.688;2022-11-20T02:24:03;6.90;62.10
45044;DHT22;30784;48.490;9.688;2022-11-20T02:26:31;6.80;62.10
45044;DHT22;30784;48.490;9.688;2022-11-20T02:28:59;6.80;62.10
45044;DHT22;30784;48.490;9.688;2022-11-20T02:31:28;6.80;62.20
45044;DHT22;30784;48.490;9.688;2022-11-20T02:33:56;6.70;62.10
45044;DHT22;30784;48.490;9.688;2022-11-20T02:36:29;6.70;62.20
45044;DHT22;30784;48.490;9.688;2022-11-20T02:39:02;6.60;62.20
45044;DHT22;30784;48.490;9.688;2022-11-20T02:41:33;6.60;62.20
45044;DHT22;30784;48.490;9.688;2022-11-20T02:43:59;6.60;62.30
45044;DHT22;30784;48.490;9.688;2022-11-20T02:46:25;6.60;62.40
45044;DHT22;30784;48.490;9.688;2022-11-20T02:48:51;6.60;62.40
45044;DHT22;30784;48.490;9.688;2022-11-20T02:51:18;6.50;62.40
45044;DHT22;30784;48.490;9.688;2022-11-20T02:53:44;6.50;62.40
45044;DHT22;30784;48.490;9.688;2022-11-20T02:56:10;6.40;62.30
45044;DHT22;30784;48.490;9.688;2022-11-20T02:58:35;6.40;62.90
45044;DHT22;30784;48.490;9.688;2022-11-20T03:01:01;6.40;62.40
45044;DHT22;30784;48.490;9.688;2022-11-20T03:03:29;6.40;62.50
45044;DHT22;30784;48.490;9.688;2022-11-20T03:05:54;6.30;62.50
45044;DHT22;30784;48.490;9.688;2022-11-20T03:08:20;6.30;62.60
45044;DHT22;30784;48.490;9.688;2022-11-20T03:10:45;6.30;62.60
45044;DHT22;30784;48.490;9.688;2022-11-20T03:13:11;6.30;62.70
45044;DHT22;30784;48.490;9.688;2022-11-20T03:15:39;6.20;62.70
45044;DHT22;30784;48.490;9.688;2022-11-20T03:18:05;6.20;62.70
45044;DHT22;30784;48.490;9.688;2022-11-20T03:20:32;6.20;62.80
45044;DHT22;30784;48.490;9.688;2022-11-20T03:22:58;6.20;62.80
45044;DHT22;30784;48.490;9.688;2022-11-20T03:25:23;6.20;62.90
45044;DHT22;30784;48.490;9.688;2022-11-20T03:27:49;6.20;63.00
45044;DHT22;30784;48.490;9.688;2022-11-20T03:30:14;6.20;63.00
45044;DHT22;30784;48.490;9.688;2022-11-20T03:32:40;6.20;63.10
45044;DHT22;30784;48.490;9.688;2022-11-20T03:35:06;6.20;63.10
45044;DHT22;30784;48.490;9.688;2022-11-20T03:37:32;6.20;63.20
45044;DHT22;30784;48.490;9.688;2022-11-20T03:40:00;6.20;63.20
45044;DHT22;30784;48.490;9.688;2022-11-20T03:42:25;6.20;63.20
45044;DHT22;30784;48.490;9.688;2022-11-20T03:45:10;6.20;63.30
45044;DHT22;30784;48.490;9.688;2022-11-20T03:47:35;6.20;63.30
45044;DHT22;30784;48.490;9.688;2022-11-20T03:50:05;6.20;63.40
45044;DHT22;30784;48.490;9.688;2022-11-20T03:52:30;6.20;63.40
45044;DHT22;30784;48.490;9.688;2022-11-20T03:54:56;6.20;63.40
45044;DHT22;30784;48.490;9.688;2022-11-20T03:57:21;6.20;63.40
45044;DHT22;30784;48.490;9.688;2022-11-20T03:59:56;6.10;63.30
45044;DHT22;30784;48.490;9.688;2022-11-20T04:02:24;6.20;63.30
45044;DHT22;30784;48.490;9.688;2022-11-20T04:04:50;6.20;63.30
45044;DHT22;30784;48.490;9.688;2022-11-20T04:07:15;6.20;63.40
45044;DHT22;30784;48.490;9.688;2022-11-20T04:09:41;6.20;63.40
45044;DHT22;30784;48.490;9.688;2022-11-20T04:12:06;6.20;63.40
45044;DHT22;30784;48.490;9.688;2022-11-20T04:14:32;6.30;63.30
45044;DHT22;30784;48.490;9.688;2022-11-20T04:17:00;6.30;63.20
45044;DHT22;30784;48.490;9.688;2022-11-20T04:19:26;6.30;63.20
45044;DHT22;30784;48.490;9.688;2022-11-20T04:21:54;6.30;63.20
45044;DHT22;30784;48.490;9.688;2022-11-20T04:24:20;6.30;63.20
45044;DHT22;30784;48.490;9.688;2022-11-20T04:26:45;6.30;63.20
45044;DHT22;30784;48.490;9.688;2022-11-20T04:29:11;6.30;63.20
45044;DHT22;30784;48.490;9.688;2022-11-20T04:31:37;6.30;63.20
45044;DHT22;30784;48.490;9.688;2022-11-20T04:34:06;6.30;63.20
45044;DHT22;30784;48.490;9.688;2022-11-20T04:36:32;6.30;63.30
45044;DHT22;30784;48.490;9.688;2022-11-20T04:39:05;6.40;63.40
45044;DHT22;30784;48.490;9.688;2022-11-20T04:41:33;6.30;63.40
45044;DHT22;30784;48.490;9.688;2022-11-20T04:44:00;6.30;63.50
45044;DHT22;30784;48.490;9.688;2022-11-20T04:46:29;6.30;64.00
45044;DHT22;30784;48.490;9.688;2022-11-20T04:48:55;6.30;63.40
45044;DHT22;30784;48.490;9.688;2022-11-20T04:51:21;6.30;63.40
45044;DHT22;30784;48.490;9.688;2022-11-20T04:53:47;6.40;63.40
45044;DHT22;30784;48.490;9.688;2022-11-20T04:56:13;6.40;63.50
45044;DHT22;30784;48.490;9.688;2022-11-20T04:58:39;6.40;63.50
45044;DHT22;30784;48.490;9.688;2022-11-20T05:01:16;6.40;63.50
45044;DHT22;30784;48.490;9.688;2022-11-20T05:03:43;6.40;63.50
45044;DHT22;30784;48.490;9.688;2022-11-20T05:06:11;6.40;63.60
45044;DHT22;30784;48.490;9.688;2022-11-20T05:08:40;6.40;63.70
45044;DHT22;30784;48.490;9.688;2022-11-20T05:11:09;6.40;63.70
45044;DHT22;30784;48.490;9.688;2022-11-20T05:13:38;6.40;63.70
45044;DHT22;30784;48.490;9.688;2022-11-20T05:16:12;6.40;63.80
45044;DHT22;30784;48.490;9.688;2022-11-20T05:18:38;6.40;63.70
45044;DHT22;30784;48.490;9.688;2022-11-20T05:21:08;6.40;63.80
45044;DHT22;30784;48.490;9.688;2022-11-20T05:23:34;6.50;63.80
45044;DHT22;30784;48.490;9.688;2022-11-20T05:26:00;6.50;63.80
45044;DHT22;30784;48.490;9.688;2022-11-20T05:28:27;6.50;63.80
45044;DHT22;30784;48.490;9.688;2022-11-20T05:30:53;6.50;63.70
45044;DHT22;30784;48.490;9.688;2022-11-20T05:33:19;6.50;64.30
45044;DHT22;30784;48.490;9.688;2022-11-20T05:35:48;6.50;63.70
45044;DHT22;30784;48.490;9.688;2022-11-20T05:38:17;6.50;63.70
45044;DHT22;30784;48.490;9.688;2022-11-20T05:40:42;6.50;63.70
45044;DHT22;30784;48.490;9.688;2022-11-20T05:43:10;6.60;63.70
45044;DHT22;30784;48.490;9.688;2022-11-20T05:45:36;6.60;63.60
45044;DHT22;30784;48.490;9.688;2022-11-20T05:48:01;6.60;63.60
45044;DHT22;30784;48.490;9.688;2022-11-20T05:50:28;6.60;63.50
45044;DHT22;30784;48.490;9.688;2022-11-20T05:52:53;6.60;63.40
45044;DHT22;30784;48.490;9.688;2022-11-20T05:55:19;6.60;63.40
45044;DHT22;30784;48.490;9.688;2022-11-20T05:57:45;6.70;63.40
45044;DHT22;30784;48.490;9.688;2022-11-20T06:00:11;6.70;63.40
45044;DHT22;30784;48.490;9.688;2022-11-20T06:02:36;6.60;63.40
45044;DHT22;30784;48.490;9.688;2022-11-20T06:05:02;6.80;63.50
45044;DHT22;30784;48.490;9.688;2022-11-20T06:07:28;6.70;63.30
45044;DHT22;30784;48.490;9.688;2022-11-20T06:09:53;6.70;63.30
45044;DHT22;30784;48.490;9.688;2022-11-20T06:12:19;6.70;63.20
45044;DHT22;30784;48.490;9.688;2022-11-20T06:14:44;6.70;63.10
45044;DHT22;30784;48.490;9.688;2022-11-20T06:17:10;6.70;63.00
45044;DHT22;30784;48.490;9.688;2022-11-20T06:19:35;6.70;63.20
45044;DHT22;30784;48.490;9.688;2022-11-20T06:22:01;6.70;63.10
45044;DHT22;30784;48.490;9.688;2022-11-20T06:24:26;6.70;63.20
45044;DHT22;30784;48.490;9.688;2022-11-20T06:26:52;6.70;63.20
45044;DHT22;30784;48.490;9.688;2022-11-20T06:29:17;6.70;63.00
45044;DHT22;30784;48.490;9.688;2022-11-20T06:31:43;6.80;63.10
45044;DHT22;30784;48.490;9.688;2022-11-20T06:34:09;6.80;63.00
45044;DHT22;30784;48.490;9.688;2022-11-20T06:36:34;6.80;62.90
45044;DHT22;30784;48.490;9.688;2022-11-20T06:39:01;6.80;63.00
45044;DHT22;30784;48.490;9.688;2022-11-20T06:41:27;6.80;63.00
45044;DHT22;30784;48.490;9.688;2022-11-20T06:43:53;6.80;62.90
45044;DHT22;30784;48.490;9.688;2022-11-20T06:46:19;6.80;62.80
45044;DHT22;30784;48.490;9.688;2022-11-20T06:48:45;6.80;62.90
45044;DHT22;30784;48.490;9.688;2022-11-20T06:51:11;6.80;62.80
45044;DHT22;30784;48.490;9.688;2022-11-20T06:53:37;6.80;62.90
45044;DHT22;30784;48.490;9.688;2022-11-20T06:56:03;6.90;62.90
45044;DHT22;30784;48.490;9.688;2022-11-20T06:58:31;6.90;63.30
45044;DHT22;30784;48.490;9.688;2022-11-20T07:01:02;6.90;62.60
45044;DHT22;30784;48.490;9.688;2022-11-20T07:03:28;6.90;62.60
45044;DHT22;30784;48.490;9.688;2022-11-20T07:05:57;6.90;62.50
45044;DHT22;30784;48.490;9.688;2022-11-20T07:08:23;6.90;62.40
45044;DHT22;30784;48.490;9.688;2022-11-20T07:10:49;6.90;62.50
45044;DHT22;30784;48.490;9.688;2022-11-20T07:13:15;6.90;62.50
45044;DHT22;30784;48.490;9.688;2022-11-20T07:15:40;6.90;62.40
45044;DHT22;30784;48.490;9.688;2022-11-20T07:18:06;6.90;62.40
45044;DHT22;30784;48.490;9.688;2022-11-20T07:20:32;6.90;62.30
45044;DHT22;30784;48.490;9.688;2022-11-20T07:22:58;6.80;62.10
45044;DHT22;30784;48.490;9.688;2022-11-20T07:25:25;6.90;62.10
45044;DHT22;30784;48.490;9.688;2022-11-20T07:27:51;6.80;62.10
45044;DHT22;30784;48.490;9.688;2022-11-20T07:30:17;6.80;62.10
45044;DHT22;30784;48.490;9.688;2022-11-20T07:32:45;6.90;62.20
45044;DHT22;30784;48.490;9.688;2022-11-20T07:35:11;6.80;62.20
45044;DHT22;30784;48.490;9.688;2022-11-20T07:37:37;6.80;62.20
45044;DHT22;30784;48.490;9.688;2022-11-20T07:40:02;6.80;62.30
45044;DHT22;30784;48.490;9.688;2022-11-20T07:42:28;6.70;62.20
45044;DHT22;30784;48.490;9.688;2022-11-20T07:44:54;6.70;62.10
45044;DHT22;30784;48.490;9.688;2022-11-20T07:47:19;6.70;62.20
45044;DHT22;30784;48.490;9.688;2022-11-20T07:49:45;6.70;62.10
45044;DHT22;30784;48.490;9.688;2022-11-20T07:52:10;6.70;62.80
45044;DHT22;30784;48.490;9.688;2022-11-20T07:54:36;6.70;62.30
45044;DHT22;30784;48.490;9.688;2022-11-20T07:57:01;6.70;62.40
45044;DHT22;30784;48.490;9.688;2022-11-20T07:59:27;6.70;62.40
45044;DHT22;30784;48.490;9.688;2022-11-20T08:01:53;6.70;62.30
45044;DHT22;30784;48.490;9.688;2022-11-20T08:04:18;6.70;62.30
45044;DHT22;30784;48.490;9.688;2022-11-20T08:06:44;6.70;62.40
45044;DHT22;30784;48.490;9.688;2022-11-20T08:09:09;6.80;62.30
45044;DHT22;30784;48.490;9.688;2022-11-20T08:11:36;6.70;62.30
45044;DHT22;30784;48.490;9.688;2022-11-20T08:14:20;6.80;62.30
45044;DHT22;30784;48.490;9.688;2022-11-20T08:16:47;6.70;62.20
45044;DHT22;30784;48.490;9.688;2022-11-20T08:19:15;6.70;62.20
45044;DHT22;30784;48.490;9.688;2022-11-20T08:21:41;6.70;62.50
45044;DHT22;30784;48.490;9.688;2022-11-20T08:24:07;6.70;62.30
45044;DHT22;30784;48.490;9.688;2022-11-20T08:26:34;6.70;62.40
45044;DHT22;30784;48.490;9.688;2022-11-20T08:28:59;6.70;62.50
45044;DHT22;30784;48.490;9.688;2022-11-20T08:31:26;6.70;62.60
45044;DHT22;30784;48.490;9.688;2022-11-20T08:33:53;6.70;62.60
45044;DHT22;30784;48.490;9.688;2022-11-20T08:36:19;6.80;62.80
45044;DHT22;30784;48.490;9.688;2022-11-20T08:38:50;6.80;63.10
45044;DHT22;30784;48.490;9.688;2022-11-20T08:41:17;6.80;63.30
45044;DHT22;30784;48.490;9.688;2022-11-20T08:43:57;6.90;63.30
45044;DHT22;30784;48.490;9.688;2022-11-20T08:46:24;6.90;63.00
45044;DHT22;30784;48.490;9.688;2022-11-20T08:48:50;7.00;63.10
45044;DHT22;30784;48.490;9.688;2022-11-20T08:51:17;7.10;62.90
45044;DHT22;30784;48.490;9.688;2022-11-20T08:53:43;7.10;62.80
45044;DHT22;30784;48.490;9.688;2022-11-20T08:56:09;7.20;63.10
45044;DHT22;30784;48.490;9.688;2022-11-20T08:58:35;7.20;63.10
45044;DHT22;30784;48.490;9.688;2022-11-20T09:01:01;7.30;63.10
45044;DHT22;30784;48.490;9.688;2022-11-20T09:03:27;7.30;62.90
45044;DHT22;30784;48.490;9.688;2022-11-20T09:06:05;7.40;62.80
45044;DHT22;30784;48.490;9.688;2022-11-20T09:08:31;7.50;62.70
45044;DHT22;30784;48.490;9.688;2022-11-20T09:10:57;7.50;62.40
45044;DHT22;30784;48.490;9.688;2022-11-20T09:13:24;7.60;62.20
45044;DHT22;30784;48.490;9.688;2022-11-20T09:15:58;7.60;62.10
45044;DHT22;30784;48.490;9.688;2022-11-20T09:18:24;7.60;62.00
45044;DHT22;30784;48.490;9.688;2022-11-20T09:20:50;7.60;61.90
45044;DHT22;30784;48.490;9.688;2022-11-20T09:23:16;7.60;61.70
45044;DHT22;30784;48.490;9.688;2022-11-20T09:25:42;7.60;61.70
45044;DHT22;30784;48.490;9.688;2022-11-20T09:28:08;7.60;61.70
45044;DHT22;30784;48.490;9.688;2022-11-20T09:30:34;7.60;61.70
45044;DHT22;30784;48.490;9.688;2022-11-20T09:32:59;7.60;61.60
45044;DHT22;30784;48.490;9.688;2022-11-20T09:35:25;7.60;61.70
45044;DHT22;30784;48.490;9.688;2022-11-20T09:37:51;7.60;61.60
45044;DHT22;30784;48.490;9.688;2022-11-20T09:51:05;7.60;61.80
45044;DHT22;30784;48.490;9.688;2022-11-20T09:56:26;7.50;61.90
45044;DHT22;30784;48.490;9.688;2022-11-20T09:58:57;7.60;62.10
45044;DHT22;30784;48.490;9.688;2022-11-20T10:01:29;7.50;62.20
45044;DHT22;30784;48.490;9.688;2022-11-20T10:06:31;7.50;62.30
45044;DHT22;30784;48.490;9.688;2022-11-20T10:14:48;7.50;62.40
45044;DHT22;30784;48.490;9.688;2022-11-20T10:28:29;7.60;62.80
45044;DHT22;30784;48.490;9.688;2022-11-20T10:31:01;7.60;62.80
45044;DHT22;30784;48.490;9.688;2022-11-20T10:33:47;7.70;63.00
45044;DHT22;30784;48.490;9.688;2022-11-20T10:36:25;7.60;62.90
45044;DHT22;30784;48.490;9.688;2022-11-20T10:38:59;7.70;62.90
45044;DHT22;30784;48.490;9.688;2022-11-20T10:41:32;7.70;63.00
45044;DHT22;30784;48.490;9.688;2022-11-20T10:44:15;7.60;63.00
45044;DHT22;30784;48.490;9.688;2022-11-20T10:47:05;7.60;63.10
45044;DHT22;30784;48.490;9.688;2022-11-20T10:49:35;7.70;63.20
45044;DHT22;30784;48.490;9.688;2022-11-20T10:52:10;7.70;63.30
45044;DHT22;30784;48.490;9.688;2022-11-20T10:55:07;7.70;63.60
45044;DHT22;30784;48.490;9.688;2022-11-20T11:00:31;7.70;63.60
45044;DHT22;30784;48.490;9.688;2022-11-20T11:02:57;7.70;64.20
45044;DHT22;30784;48.490;9.688;2022-11-20T11:08:21;7.70;63.70
45044;DHT22;30784;48.490;9.688;2022-11-20T11:10:55;7.80;63.90
45044;DHT22;30784;48.490;9.688;2022-11-20T11:13:30;7.70;63.70
45044;DHT22;30784;48.490;9.688;2022-11-20T11:15:56;7.80;63.90
45044;DHT22;30784;48.490;9.688;2022-11-20T11:18:33;7.80;64.00
45044;DHT22;30784;48.490;9.688;2022-11-20T11:21:04;7.80;63.90
45044;DHT22;30784;48.490;9.688;2022-11-20T11:23:35;7.80;64.00
45044;DHT22;30784;48.490;9.688;2022-11-20T11:26:03;7.80;64.10
45044;DHT22;30784;48.490;9.688;2022-11-20T11:28:29;7.80;64.00
45044;DHT22;30784;48.490;9.688;2022-11-20T11:30:55;7.80;63.90
45044;DHT22;30784;48.490;9.688;2022-11-20T11:33:24;7.90;63.90
45044;DHT22;30784;48.490;9.688;2022-11-20T11:35:55;7.90;64.00
45044;DHT22;30784;48.490;9.688;2022-11-20T11:38:42;7.90;63.90
45044;DHT22;30784;48.490;9.688;2022-11-20T11:41:22;7.90;63.80
45044;DHT22;30784;48.490;9.688;2022-11-20T11:43:57;7.90;63.70
45044;DHT22;30784;48.490;9.688;2022-11-20T11:46:51;7.90;63.70
45044;DHT22;30784;48.490;9.688;2022-11-20T11:49:19;8.00;63.80
45044;DHT22;30784;48.490;9.688;2022-11-20T11:51:47;8.00;63.70
45044;DHT22;30784;48.490;9.688;2022-11-20T11:54:19;8.00;63.70
45044;DHT22;30784;48.490;9.688;2022-11-20T11:56:46;8.00;63.70
45044;DHT22;30784;48.490;9.688;2022-11-20T11:59:17;8.10;63.30
45044;DHT22;30784;48.490;9.688;2022-11-20T12:01:54;8.10;63.30
45044;DHT22;30784;48.490;9.688;2022-11-20T12:04:43;8.10;63.40
45044;DHT22;30784;48.490;9.688;2022-11-20T12:07:42;8.20;63.50
45044;DHT22;30784;48.490;9.688;2022-11-20T12:10:19;8.20;63.50
45044;DHT22;30784;48.490;9.688;2022-11-20T12:12:53;8.20;63.40
45044;DHT22;30784;48.490;9.688;2022-11-20T12:15:26;8.20;63.20
45044;DHT22;30784;48.490;9.688;2022-11-20T12:17:52;8.30;63.10
45044;DHT22;30784;48.490;9.688;2022-11-20T12:20:17;8.30;63.10
45044;DHT22;30784;48.490;9.688;2022-11-20T12:22:53;8.30;63.60
45044;DHT22;30784;48.490;9.688;2022-11-20T12:25:22;8.40;63.60
45044;DHT22;30784;48.490;9.688;2022-11-20T12:28:28;8.50;63.40
45044;DHT22;30784;48.490;9.688;2022-11-20T12:31:20;8.60;63.30
45044;DHT22;30784;48.490;9.688;2022-11-20T12:33:59;8.70;62.80
45044;DHT22;30784;48.490;9.688;2022-11-20T12:36:49;8.80;62.60
45044;DHT22;30784;48.490;9.688;2022-11-20T12:39:35;8.80;62.10
45044;DHT22;30784;48.490;9.688;2022-11-20T12:42:10;8.90;61.70
45044;DHT22;30784;48.490;9.688;2022-11-20T12:48:30;9.00;61.40
45044;DHT22;30784;48.490;9.688;2022-11-20T12:53:54;9.20;61.00
45044;DHT22;30784;48.490;9.688;2022-11-20T13:01:44;9.40;59.80
45044;DHT22;30784;48.490;9.688;2022-11-20T13:06:48;9.40;59.60
45044;DHT22;30784;48.490;9.688;2022-11-20T13:09:16;9.50;59.30
45044;DHT22;30784;48.490;9.688;2022-11-20T13:19:54;9.70;58.90
45044;DHT22;30784;48.490;9.688;2022-11-20T13:22:27;9.70;58.50
45044;DHT22;30784;48.490;9.688;2022-11-20T13:24:54;9.70;58.20
45044;DHT22;30784;48.490;9.688;2022-11-20T13:27:21;9.70;57.70
45044;DHT22;30784;48.490;9.688;2022-11-20T13:30:14;9.70;57.50
45044;DHT22;30784;48.490;9.688;2022-11-20T13:32:54;9.60;58.10
45044;DHT22;30784;48.490;9.688;2022-11-20T13:35:41;9.50;57.90
45044;DHT22;30784;48.490;9.688;2022-11-20T13:38:13;9.50;58.10
45044;DHT22;30784;48.490;9.688;2022-11-20T13:40:54;9.50;57.80
45044;DHT22;30784;48.490;9.688;2022-11-20T13:43:32;9.40;58.10
45044;DHT22;30784;48.490;9.688;2022-11-20T13:46:04;9.40;58.10
45044;DHT22;30784;48.490;9.688;2022-11-20T13:48:48;9.30;58.20
45044;DHT22;30784;48.490;9.688;2022-11-20T13:54:12;9.30;58.30
45044;DHT22;30784;48.490;9.688;2022-11-20T13:56:59;9.30;58.80
45044;DHT22;30784;48.490;9.688;2022-11-20T14:02:22;9.20;58.60
45044;DHT22;30784;48.490;9.688;2022-11-20T14:04:52;9.20;58.40
45044;DHT22;30784;48.490;9.688;2022-11-20T14:07:21;9.20;58.30
45044;DHT22;30784;48.490;9.688;2022-11-20T14:09:52;9.10;58.50
45044;DHT22;30784;48.490;9.688;2022-11-20T14:12:20;9.20;58.50
45044;DHT22;30784;48.490;9.688;2022-11-20T14:14:53;9.20;58.50
45044;DHT22;30784;48.490;9.688;2022-11-20T14:19:49;9.20;58.40
45044;DHT22;30784;48.490;9.688;2022-11-20T14:22:21;9.20;58.50
45044;DHT22;30784;48.490;9.688;2022-11-20T14:25:00;9.20;58.50
45044;DHT22;30784;48.490;9.688;2022-11-20T14:27:26;9.20;58.30
45044;DHT22;30784;48.490;9.688;2022-11-20T14:29:51;9.20;58.40
45044;DHT22;30784;48.490;9.688;2022-11-20T14:32:19;9.20;58.30
45044;DHT22;30784;48.490;9.688;2022-11-20T14:34:47;9.10;58.20
45044;DHT22;30784;48.490;9.688;2022-11-20T14:37:27;9.20;58.20
45044;DHT22;30784;48.490;9.688;2022-11-20T14:39:55;9.20;58.30
45044;DHT22;30784;48.490;9.688;2022-11-20T14:42:26;9.20;58.10
45044;DHT22;30784;48.490;9.688;2022-11-20T14:44:55;9.20;57.90
45044;DHT22;30784;48.490;9.688;2022-11-20T14:47:27;9.20;57.80
45044;DHT22;30784;48.490;9.688;2022-11-20T14:49:55;9.20;57.30
45044;DHT22;30784;48.490;9.688;2022-11-20T14:52:23;9.20;57.40
45044;DHT22;30784;48.490;9.688;2022-11-20T14:54:50;9.10;57.00
45044;DHT22;30784;48.490;9.688;2022-11-20T14:57:31;9.10;56.60
45044;DHT22;30784;48.490;9.688;2022-11-20T15:02:32;9.10;57.30
45044;DHT22;30784;48.490;9.688;2022-11-20T15:04:59;9.10;55.80
45044;DHT22;30784;48.490;9.688;2022-11-20T15:07:32;9.00;55.80
45044;DHT22;30784;48.490;9.688;2022-11-20T15:10:10;9.00;56.00
45044;DHT22;30784;48.490;9.688;2022-11-20T15:15:19;8.90;56.30
45044;DHT22;30784;48.490;9.688;2022-11-20T15:17:46;8.80;55.90
45044;DHT22;30784;48.490;9.688;2022-11-20T15:20:14;8.80;56.20
45044;DHT22;30784;48.490;9.688;2022-11-20T15:22:41;8.70;56.00
45044;DHT22;30784;48.490;9.688;2022-11-20T15:25:14;8.70;56.00
45044;DHT22;30784;48.490;9.688;2022-11-20T15:27:41;8.60;56.10
45044;DHT22;30784;48.490;9.688;2022-11-20T15:30:15;8.60;56.20
45044;DHT22;30784;48.490;9.688;2022-11-20T15:32:42;8.60;56.30
45044;DHT22;30784;48.490;9.688;2022-11-20T15:35:08;8.60;56.10
45044;DHT22;30784;48.490;9.688;2022-11-20T15:37:34;8.60;56.30
45044;DHT22;30784;48.490;9.688;2022-11-20T15:40:00;8.50;56.20
45044;DHT22;30784;48.490;9.688;2022-11-20T15:42:27;8.50;56.20
45044;DHT22;30784;48.490;9.688;2022-11-20T15:44:53;8.50;56.20
45044;DHT22;30784;48.490;9.688;2022-11-20T15:47:23;8.40;56.20
45044;DHT22;30784;48.490;9.688;2022-11-20T15:49:48;8.40;56.30
45044;DHT22;30784;48.490;9.688;2022-11-20T15:52:14;8.40;56.90
45044;DHT22;30784;48.490;9.688;2022-11-20T15:54:41;8.30;56.20
45044;DHT22;30784;48.490;9.688;2022-11-20T15:57:06;8.30;56.40
45044;DHT22;30784;48.490;9.688;2022-11-20T15:59:32;8.30;56.50
45044;DHT22;30784;48.490;9.688;2022-11-20T16:01:58;8.20;56.40
45044;DHT22;30784;48.490;9.688;2022-11-20T16:04:23;8.20;56.50
45044;DHT22;30784;48.490;9.688;2022-11-20T16:06:49;8.20;56.50
45044;DHT22;30784;48.490;9.688;2022-11-20T16:09:15;8.20;56.50
45044;DHT22;30784;48.490;9.688;2022-11-20T16:11:40;8.10;56.50
45044;DHT22;30784;48.490;9.688;2022-11-20T16:14:08;8.10;56.60
45044;DHT22;30784;48.490;9.688;2022-11-20T16:16:53;8.10;56.60
45044;DHT22;30784;48.490;9.688;2022-11-20T16:19:19;8.10;56.60
45044;DHT22;30784;48.490;9.688;2022-11-20T16:21:45;8.10;56.50
45044;DHT22;30784;48.490;9.688;2022-11-20T16:24:12;8.00;56.50
45044;DHT22;30784;48.490;9.688;2022-11-20T16:26:39;8.00;56.60
45044;DHT22;30784;48.490;9.688;2022-11-20T16:29:06;8.00;56.60
45044;DHT22;30784;48.490;9.688;2022-11-20T16:31:32;7.90;56.70
45044;DHT22;30784;48.490;9.688;2022-11-20T16:34:03;7.90;56.70
45044;DHT22;30784;48.490;9.688;2022-11-20T16:36:30;7.90;56.70
45044;DHT22;30784;48.490;9.688;2022-11-20T16:38:58;7.90;56.80
45044;DHT22;30784;48.490;9.688;2022-11-20T16:41:26;7.80;56.80
45044;DHT22;30784;48.490;9.688;2022-11-20T16:44:06;7.80;56.90
45044;DHT22;30784;48.490;9.688;2022-11-20T16:46:32;7.80;57.00
45044;DHT22;30784;48.490;9.688;2022-11-20T16:48:59;7.80;57.10
45044;DHT22;30784;48.490;9.688;2022-11-20T16:51:30;7.70;57.10
45044;DHT22;30784;48.490;9.688;2022-11-20T16:53:56;7.70;57.10
45044;DHT22;30784;48.490;9.688;2022-11-20T16:56:26;7.70;57.20
45044;DHT22;30784;48.490;9.688;2022-11-20T16:58:54;7.70;57.20
45044;DHT22;30784;48.490;9.688;2022-11-20T17:01:21;7.70;57.30
45044;DHT22;30784;48.490;9.688;2022-11-20T17:03:54;7.60;57.30
45044;DHT22;30784;48.490;9.688;2022-11-20T17:06:22;7.60;57.40
45044;DHT22;30784;48.490;9.688;2022-11-20T17:08:48;7.60;57.50
45044;DHT22;30784;48.490;9.688;2022-11-20T17:11:16;7.60;57.60
45044;DHT22;30784;48.490;9.688;2022-11-20T17:13:42;7.50;57.70
45044;DHT22;30784;48.490;9.688;2022-11-20T17:16:19;7.50;57.70